Terminal Aerodrome Forecast
Issued by NWS

Home | Current Version | Previous Version | Text Only | Print | Product List | Glossary On
Versions: 1 2 3 4 5 6 7 8 9 10 11 12 13 14 15 16 17
000
FTUS46 KMTR 051700
TAFSJC
TAF
KSJC 051739Z 0518/0618 16006KT P6SM FEW022
     FM051900 28008KT P6SM SKC
     FM052300 31014KT P6SM SKC
     FM060300 31006KT P6SM SKC
     FM060700 14007G14KT P6SM FEW020
     FM061100 15011G17KT P6SM SCT018=

USA.gov is the U.S. government's official web portal to all federal, state and local government web resources and services.